^^
TXWeather Station Historical Data
Daily Summary for April 19, 2022 Units:  English    Metric   Both
Daily Weekly Monthly Yearly Custom
  High: Low: Average:
Temperature: 78.0 °F 54.0 °F 66.6 °F
Dew Point: 63.0 °F 48.0 °F 56.1 °F
Humidity: 80% 57% 69%
Wind Speed: 23mph 3mph 10.2mph
Wind Gust: 23mph - -
Wind- - ESE
Pressure: 30.3 in 30.1 in -
Precipitation: 0.000 in    
Historical Graphs
 
 
Tabular Data for April 19, 2022
Time Temperature Dew Point Pressure Wind Wind Speed Wind Gust Humidity Rainfall Rate (Hourly) solar
00:04 64.0 °F 53.0 °F 30.2 in NE 9 mph 9 mph 67% 0.000 in 0.00 W/m2
00:09 64.0 °F 53.0 °F 30.2 in ENE 3 mph 9 mph 68% 0.000 in 0.00 W/m2
00:14 64.0 °F 53.0 °F 30.2 in NE 5 mph 8 mph 68% 0.000 in 0.00 W/m2
00:19 64.0 °F 53.0 °F 30.2 in NE 5 mph 5 mph 68% 0.000 in 0.00 W/m2
00:24 64.0 °F 53.0 °F 30.2 in NE 4 mph 4 mph 68% 0.000 in 0.00 W/m2
00:29 64.0 °F 53.0 °F 30.2 in NE 6 mph 6 mph 69% 0.000 in 0.00 W/m2
00:34 63.0 °F 53.0 °F 30.2 in ENE 4 mph 4 mph 69% 0.000 in 0.00 W/m2
00:39 63.0 °F 53.0 °F 30.2 in NE 4 mph 4 mph 69% 0.000 in 0.00 W/m2
00:44 63.0 °F 53.0 °F 30.2 in NE 4 mph 4 mph 69% 0.000 in 0.00 W/m2
00:49 63.0 °F 53.0 °F 30.2 in ENE 4 mph 6 mph 69% 0.000 in 0.00 W/m2
00:54 63.0 °F 53.0 °F 30.2 in NE 7 mph 7 mph 70% 0.000 in 0.00 W/m2
00:59 63.0 °F 53.0 °F 30.2 in ENE 4 mph 5 mph 70% 0.000 in 0.00 W/m2
01:04 62.0 °F 53.0 °F 30.2 in NE 4 mph 4 mph 70% 0.000 in 0.00 W/m2
01:09 62.0 °F 53.0 °F 30.2 in NE 7 mph 7 mph 70% 0.000 in 0.00 W/m2
01:14 62.0 °F 52.0 °F 30.2 in ENE 4 mph 4 mph 70% 0.000 in 0.00 W/m2
01:19 62.0 °F 52.0 °F 30.2 in NE 3 mph 4 mph 70% 0.000 in 0.00 W/m2
01:24 62.0 °F 52.0 °F 30.2 in NE 7 mph 7 mph 70% 0.000 in 0.00 W/m2
01:29 62.0 °F 52.0 °F 30.2 in NE 5 mph 5 mph 70% 0.000 in 0.00 W/m2
01:34 62.0 °F 52.0 °F 30.2 in ENE 7 mph 7 mph 71% 0.000 in 0.00 W/m2
01:39 62.0 °F 52.0 °F 30.2 in ENE 4 mph 7 mph 71% 0.000 in 0.00 W/m2
01:44 62.0 °F 52.0 °F 30.2 in NE 4 mph 4 mph 71% 0.000 in 0.00 W/m2
01:49 61.0 °F 52.0 °F 30.2 in ENE 5 mph 6 mph 71% 0.000 in 0.00 W/m2
01:54 61.0 °F 52.0 °F 30.2 in NE 5 mph 6 mph 71% 0.000 in 0.00 W/m2
01:59 61.0 °F 52.0 °F 30.2 in NE 7 mph 8 mph 71% 0.000 in 0.00 W/m2
02:04 61.0 °F 51.0 °F 30.2 in NE 7 mph 9 mph 71% 0.000 in 0.00 W/m2
02:09 61.0 °F 51.0 °F 30.2 in NE 5 mph 7 mph 71% 0.000 in 0.00 W/m2
02:14 61.0 °F 51.0 °F 30.2 in NE 6 mph 7 mph 71% 0.000 in 0.00 W/m2
02:19 61.0 °F 51.0 °F 30.2 in ENE 5 mph 7 mph 71% 0.000 in 0.00 W/m2
02:24 60.0 °F 51.0 °F 30.2 in NE 6 mph 9 mph 71% 0.000 in 0.00 W/m2
02:29 60.0 °F 51.0 °F 30.2 in NE 6 mph 9 mph 71% 0.000 in 0.00 W/m2
02:34 60.0 °F 51.0 °F 30.2 in NE 5 mph 5 mph 71% 0.000 in 0.00 W/m2
02:39 60.0 °F 51.0 °F 30.2 in East 8 mph 10 mph 71% 0.000 in 0.00 W/m2
02:44 60.0 °F 51.0 °F 30.2 in ENE 5 mph 7 mph 71% 0.000 in 0.00 W/m2
02:49 60.0 °F 51.0 °F 30.2 in ENE 5 mph 5 mph 71% 0.000 in 0.00 W/m2
02:54 60.0 °F 51.0 °F 30.2 in NE 4 mph 4 mph 71% 0.000 in 0.00 W/m2
02:59 60.0 °F 51.0 °F 30.2 in East 6 mph 6 mph 72% 0.000 in 0.00 W/m2
03:04 60.0 °F 51.0 °F 30.2 in ENE 4 mph 4 mph 72% 0.000 in 0.00 W/m2
03:09 60.0 °F 51.0 °F 30.2 in ENE 7 mph 7 mph 72% 0.000 in 0.00 W/m2
03:14 59.0 °F 50.0 °F 30.2 in ENE 6 mph 6 mph 72% 0.000 in 0.00 W/m2
03:19 59.0 °F 51.0 °F 30.2 in ENE 3 mph 4 mph 73% 0.000 in 0.00 W/m2
03:24 59.0 °F 51.0 °F 30.2 in ENE 5 mph 5 mph 73% 0.000 in 0.00 W/m2
03:29 59.0 °F 50.0 °F 30.2 in ENE 8 mph 8 mph 73% 0.000 in 0.00 W/m2
03:34 59.0 °F 50.0 °F 30.2 in NE 6 mph 8 mph 73% 0.000 in 0.00 W/m2
03:39 59.0 °F 50.0 °F 30.2 in ENE 10 mph 11 mph 73% 0.000 in 0.00 W/m2
03:44 59.0 °F 50.0 °F 30.2 in ENE 7 mph 7 mph 73% 0.000 in 0.00 W/m2
03:49 59.0 °F 50.0 °F 30.2 in East 9 mph 9 mph 73% 0.000 in 0.00 W/m2
03:54 58.0 °F 50.0 °F 30.2 in ENE 8 mph 8 mph 73% 0.000 in 0.00 W/m2
03:59 58.0 °F 49.0 °F 30.2 in NE 6 mph 11 mph 72% 0.000 in 0.00 W/m2
04:04 58.0 °F 49.0 °F 30.2 in ENE 5 mph 6 mph 72% 0.000 in 0.00 W/m2
04:09 58.0 °F 49.0 °F 30.2 in ENE 7 mph 9 mph 72% 0.000 in 0.00 W/m2
04:14 58.0 °F 49.0 °F 30.2 in ENE 8 mph 9 mph 72% 0.000 in 0.00 W/m2
04:19 58.0 °F 48.0 °F 30.2 in ENE 7 mph 11 mph 71% 0.000 in 0.00 W/m2
04:24 58.0 °F 48.0 °F 30.2 in East 8 mph 8 mph 71% 0.000 in 0.00 W/m2
04:29 58.0 °F 48.0 °F 30.2 in ENE 6 mph 8 mph 71% 0.000 in 0.00 W/m2
04:34 58.0 °F 49.0 °F 30.2 in ENE 8 mph 8 mph 72% 0.000 in 0.00 W/m2
04:39 58.0 °F 49.0 °F 30.2 in ENE 8 mph 10 mph 72% 0.000 in 0.00 W/m2
04:44 57.0 °F 48.0 °F 30.2 in ENE 9 mph 9 mph 72% 0.000 in 0.00 W/m2
04:49 57.0 °F 48.0 °F 30.2 in East 6 mph 9 mph 72% 0.000 in 0.00 W/m2
04:59 57.0 °F 48.0 °F 30.2 in ENE 6 mph 8 mph 73% 0.000 in 0.00 W/m2
05:04 57.0 °F 48.0 °F 30.2 in East 6 mph 7 mph 73% 0.000 in 0.00 W/m2
05:09 57.0 °F 48.0 °F 30.2 in East 7 mph 7 mph 73% 0.000 in 0.00 W/m2
05:14 57.0 °F 48.0 °F 30.2 in ENE 5 mph 7 mph 74% 0.000 in 0.00 W/m2
05:19 57.0 °F 48.0 °F 30.2 in East 9 mph 9 mph 74% 0.000 in 0.00 W/m2
05:24 57.0 °F 48.0 °F 30.2 in East 7 mph 9 mph 74% 0.000 in 0.00 W/m2
05:29 57.0 °F 49.0 °F 30.2 in ENE 6 mph 9 mph 75% 0.000 in 0.00 W/m2
05:34 56.0 °F 49.0 °F 30.2 in East 6 mph 8 mph 75% 0.000 in 0.00 W/m2
05:39 56.0 °F 48.0 °F 30.2 in East 4 mph 5 mph 75% 0.000 in 0.00 W/m2
05:44 56.0 °F 48.0 °F 30.2 in ENE 5 mph 5 mph 75% 0.000 in 0.00 W/m2
05:49 56.0 °F 49.0 °F 30.2 in ENE 3 mph 5 mph 76% 0.000 in 0.00 W/m2
05:54 56.0 °F 48.0 °F 30.2 in ENE 6 mph 8 mph 76% 0.000 in 0.00 W/m2
05:59 56.0 °F 49.0 °F 30.2 in ENE 8 mph 9 mph 77% 0.000 in 0.00 W/m2
06:04 56.0 °F 49.0 °F 30.2 in ENE 7 mph 7 mph 77% 0.000 in 0.00 W/m2
06:09 55.0 °F 48.0 °F 30.2 in NE 6 mph 7 mph 77% 0.000 in 0.00 W/m2
06:14 55.0 °F 49.0 °F 30.2 in East 7 mph 7 mph 78% 0.000 in 0.00 W/m2
06:19 55.0 °F 48.0 °F 30.2 in ENE 7 mph 7 mph 78% 0.000 in 0.00 W/m2
06:24 55.0 °F 48.0 °F 30.2 in ENE 5 mph 7 mph 78% 0.000 in 0.00 W/m2
06:29 55.0 °F 48.0 °F 30.2 in ENE 5 mph 7 mph 78% 0.000 in 0.00 W/m2
06:34 55.0 °F 48.0 °F 30.2 in NE 4 mph 7 mph 78% 0.000 in 0.00 W/m2
06:39 55.0 °F 48.0 °F 30.2 in ENE 7 mph 7 mph 78% 0.000 in 0.00 W/m2
06:44 55.0 °F 48.0 °F 30.2 in ENE 9 mph 9 mph 78% 0.000 in 0.00 W/m2
06:49 55.0 °F 48.0 °F 30.2 in NE 5 mph 6 mph 79% 0.000 in 0.00 W/m2
06:54 54.0 °F 48.0 °F 30.2 in ENE 5 mph 8 mph 79% 0.000 in 0.00 W/m2
06:59 54.0 °F 48.0 °F 30.2 in ENE 8 mph 8 mph 79% 0.000 in 0.00 W/m2
07:04 54.0 °F 48.0 °F 30.2 in East 11 mph 11 mph 79% 0.000 in 5.00 W/m2
07:09 54.0 °F 48.0 °F 30.2 in NE 7 mph 11 mph 79% 0.000 in 9.00 W/m2
07:14 54.0 °F 48.0 °F 30.2 in ENE 6 mph 7 mph 79% 0.000 in 9.00 W/m2
07:19 54.0 °F 48.0 °F 30.2 in ENE 4 mph 5 mph 79% 0.000 in 11.00 W/m2
07:24 54.0 °F 48.0 °F 30.2 in ENE 5 mph 6 mph 79% 0.000 in 16.00 W/m2
07:29 54.0 °F 48.0 °F 30.2 in NE 4 mph 5 mph 79% 0.000 in 21.00 W/m2
07:34 54.0 °F 48.0 °F 30.2 in East 4 mph 7 mph 79% 0.000 in 25.00 W/m2
07:39 54.0 °F 48.0 °F 30.2 in East 8 mph 9 mph 79% 0.000 in 33.00 W/m2
07:49 54.0 °F 48.0 °F 30.3 in East 9 mph 10 mph 79% 0.000 in 49.00 W/m2
07:54 55.0 °F 48.0 °F 30.3 in ENE 5 mph 5 mph 79% 0.000 in 90.00 W/m2
07:59 55.0 °F 49.0 °F 30.3 in East 10 mph 10 mph 80% 0.000 in 107.00 W/m2
08:04 55.0 °F 49.0 °F 30.3 in East 8 mph 8 mph 80% 0.000 in 102.00 W/m2
08:09 56.0 °F 49.0 °F 30.3 in East 8 mph 8 mph 79% 0.000 in 81.00 W/m2
08:14 56.0 °F 49.0 °F 30.3 in ENE 5 mph 8 mph 79% 0.000 in 49.00 W/m2
08:19 56.0 °F 49.0 °F 30.3 in East 7 mph 7 mph 78% 0.000 in 58.00 W/m2
08:24 56.0 °F 49.0 °F 30.2 in East 7 mph 10 mph 78% 0.000 in 63.00 W/m2
08:29 57.0 °F 50.0 °F 30.2 in East 8 mph 10 mph 78% 0.000 in 67.00 W/m2
08:34 57.0 °F 50.0 °F 30.3 in East 8 mph 9 mph 78% 0.000 in 70.00 W/m2
08:39 57.0 °F 50.0 °F 30.2 in ENE 6 mph 8 mph 77% 0.000 in 81.00 W/m2
08:44 58.0 °F 50.0 °F 30.2 in East 9 mph 9 mph 77% 0.000 in 211.00 W/m2
08:49 58.0 °F 50.0 °F 30.2 in East 8 mph 8 mph 76% 0.000 in 211.00 W/m2
08:54 58.0 °F 50.0 °F 30.2 in East 9 mph 10 mph 76% 0.000 in 292.00 W/m2
08:59 59.0 °F 51.0 °F 30.2 in ESE 10 mph 11 mph 75% 0.000 in 301.00 W/m2
09:04 59.0 °F 51.0 °F 30.2 in East 9 mph 15 mph 75% 0.000 in 316.00 W/m2
09:09 60.0 °F 51.0 °F 30.2 in SE 15 mph 15 mph 74% 0.000 in 336.00 W/m2
09:14 61.0 °F 52.0 °F 30.2 in ESE 12 mph 15 mph 73% 0.000 in 388.00 W/m2
09:19 61.0 °F 52.0 °F 30.2 in ESE 12 mph 12 mph 73% 0.000 in 388.00 W/m2
09:24 62.0 °F 52.0 °F 30.2 in ENE 7 mph 12 mph 71% 0.000 in 411.00 W/m2
09:29 62.0 °F 52.0 °F 30.2 in ESE 12 mph 12 mph 71% 0.000 in 445.00 W/m2
09:34 63.0 °F 53.0 °F 30.3 in SE 9 mph 13 mph 70% 0.000 in 482.00 W/m2
09:44 64.0 °F 53.0 °F 30.3 in ESE 9 mph 12 mph 69% 0.000 in 635.00 W/m2
09:49 65.0 °F 54.0 °F 30.3 in ESE 10 mph 12 mph 68% 0.000 in 617.00 W/m2
09:54 65.0 °F 54.0 °F 30.3 in ESE 10 mph 10 mph 67% 0.000 in 322.00 W/m2
09:59 65.0 °F 53.0 °F 30.3 in ESE 8 mph 10 mph 66% 0.000 in 346.00 W/m2
10:04 65.0 °F 54.0 °F 30.3 in ESE 9 mph 11 mph 66% 0.000 in 338.00 W/m2
10:09 66.0 °F 54.0 °F 30.3 in East 10 mph 11 mph 66% 0.000 in 274.00 W/m2
10:14 66.0 °F 54.0 °F 30.3 in ESE 11 mph 12 mph 67% 0.000 in 464.00 W/m2
10:19 66.0 °F 55.0 °F 30.3 in SE 9 mph 11 mph 67% 0.000 in 722.00 W/m2
10:24 66.0 °F 55.0 °F 30.3 in ESE 14 mph 14 mph 68% 0.000 in 738.00 W/m2
10:29 67.0 °F 55.0 °F 30.3 in ESE 13 mph 13 mph 67% 0.000 in 719.00 W/m2
10:34 67.0 °F 56.0 °F 30.3 in ESE 13 mph 15 mph 66% 0.000 in 468.00 W/m2
10:39 68.0 °F 56.0 °F 30.3 in ESE 11 mph 15 mph 66% 0.000 in 468.00 W/m2
10:44 68.0 °F 56.0 °F 30.3 in SE 12 mph 12 mph 66% 0.000 in 418.00 W/m2
10:49 68.0 °F 56.0 °F 30.3 in SE 13 mph 14 mph 66% 0.000 in 418.00 W/m2
10:59 68.0 °F 56.0 °F 30.3 in ESE 13 mph 14 mph 66% 0.000 in 441.00 W/m2
11:04 68.0 °F 57.0 °F 30.3 in SE 10 mph 12 mph 67% 0.000 in 441.00 W/m2
11:09 69.0 °F 57.0 °F 30.3 in ESE 13 mph 16 mph 67% 0.000 in 441.00 W/m2
11:14 69.0 °F 57.0 °F 30.3 in SE 16 mph 16 mph 66% 0.000 in 388.00 W/m2
11:19 70.0 °F 58.0 °F 30.3 in SE 11 mph 12 mph 66% 0.000 in 490.00 W/m2
11:24 71.0 °F 58.0 °F 30.3 in SE 11 mph 15 mph 66% 0.000 in 490.00 W/m2
11:29 71.0 °F 59.0 °F 30.3 in SE 11 mph 15 mph 65% 0.000 in 490.00 W/m2
11:34 71.0 °F 58.0 °F 30.3 in SE 13 mph 14 mph 63% 0.000 in 1041.00 W/m2
11:39 71.0 °F 58.0 °F 30.3 in SE 17 mph 17 mph 62% 0.000 in 473.00 W/m2
11:44 72.0 °F 58.0 °F 30.3 in SE 11 mph 19 mph 63% 0.000 in 1037.00 W/m2
11:49 72.0 °F 58.0 °F 30.2 in SE 13 mph 13 mph 62% 0.000 in 536.00 W/m2
11:54 72.0 °F 58.0 °F 30.2 in SE 18 mph 18 mph 62% 0.000 in 554.00 W/m2
11:59 71.0 °F 58.0 °F 30.2 in SE 14 mph 15 mph 62% 0.000 in 587.00 W/m2
12:04 72.0 °F 59.0 °F 30.2 in ESE 16 mph 16 mph 63% 0.000 in 772.00 W/m2
12:09 72.0 °F 59.0 °F 30.2 in SE 14 mph 17 mph 63% 0.000 in 772.00 W/m2
12:14 73.0 °F 59.0 °F 30.2 in ESE 11 mph 13 mph 62% 0.000 in 853.00 W/m2
12:19 73.0 °F 59.0 °F 30.2 in SE 14 mph 14 mph 61% 0.000 in 844.00 W/m2
12:24 74.0 °F 59.0 °F 30.2 in SE 15 mph 15 mph 60% 0.000 in 587.00 W/m2
12:29 74.0 °F 58.0 °F 30.2 in SE 12 mph 16 mph 59% 0.000 in 613.00 W/m2
12:34 73.0 °F 58.0 °F 30.2 in SE 12 mph 16 mph 59% 0.000 in 679.00 W/m2
12:39 74.0 °F 58.0 °F 30.2 in SE 18 mph 21 mph 59% 0.000 in 784.00 W/m2
12:44 74.0 °F 59.0 °F 30.2 in SE 13 mph 21 mph 60% 0.000 in 884.00 W/m2
12:49 74.0 °F 59.0 °F 30.2 in SE 13 mph 19 mph 60% 0.000 in 802.00 W/m2
12:54 74.0 °F 58.0 °F 30.2 in SE 20 mph 20 mph 58% 0.000 in 737.00 W/m2
12:59 74.0 °F 59.0 °F 30.2 in SE 10 mph 14 mph 59% 0.000 in 710.00 W/m2
13:04 75.0 °F 59.0 °F 30.2 in SE 12 mph 16 mph 59% 0.000 in 1062.00 W/m2
13:09 75.0 °F 60.0 °F 30.2 in SE 12 mph 14 mph 60% 0.000 in 1048.00 W/m2
13:14 76.0 °F 60.0 °F 30.2 in SE 11 mph 15 mph 59% 0.000 in 1097.00 W/m2
13:19 76.0 °F 59.0 °F 30.2 in SE 15 mph 16 mph 58% 0.000 in 1097.00 W/m2
13:24 75.0 °F 60.0 °F 30.2 in SE 16 mph 19 mph 59% 0.000 in 1123.00 W/m2
13:29 76.0 °F 60.0 °F 30.2 in SE 16 mph 20 mph 58% 0.000 in 1123.00 W/m2
13:34 76.0 °F 60.0 °F 30.2 in SE 16 mph 20 mph 59% 0.000 in 1034.00 W/m2
13:39 77.0 °F 61.0 °F 30.2 in SE 19 mph 20 mph 59% 0.000 in 1034.00 W/m2
13:44 77.0 °F 61.0 °F 30.2 in SE 16 mph 20 mph 58% 0.000 in 1039.00 W/m2
13:49 77.0 °F 61.0 °F 30.2 in SE 16 mph 16 mph 59% 0.000 in 1013.00 W/m2
13:54 76.0 °F 60.0 °F 30.2 in SE 16 mph 17 mph 59% 0.000 in 1016.00 W/m2
13:59 76.0 °F 60.0 °F 30.2 in ESE 12 mph 16 mph 59% 0.000 in 990.00 W/m2
14:04 76.0 °F 60.0 °F 30.2 in ESE 14 mph 20 mph 60% 0.000 in 990.00 W/m2
14:09 75.0 °F 60.0 °F 30.2 in SE 14 mph 20 mph 60% 0.000 in 729.00 W/m2
14:14 76.0 °F 61.0 °F 30.2 in SE 11 mph 15 mph 61% 0.000 in 422.00 W/m2
14:19 76.0 °F 61.0 °F 30.2 in SE 20 mph 20 mph 60% 0.000 in 443.00 W/m2
14:24 76.0 °F 61.0 °F 30.2 in SE 13 mph 20 mph 60% 0.000 in 1048.00 W/m2
14:29 77.0 °F 62.0 °F 30.2 in SE 15 mph 15 mph 60% 0.000 in 1048.00 W/m2
14:34 77.0 °F 61.0 °F 30.2 in SE 16 mph 17 mph 59% 0.000 in 970.00 W/m2
14:39 77.0 °F 61.0 °F 30.2 in SE 17 mph 21 mph 59% 0.000 in 1009.00 W/m2
14:44 77.0 °F 61.0 °F 30.2 in SE 18 mph 18 mph 58% 0.000 in 868.00 W/m2
14:49 77.0 °F 61.0 °F 30.2 in SE 19 mph 19 mph 58% 0.000 in 1025.00 W/m2
14:54 77.0 °F 61.0 °F 30.2 in SE 14 mph 16 mph 58% 0.000 in 1025.00 W/m2
14:59 78.0 °F 62.0 °F 30.2 in SE 19 mph 19 mph 58% 0.000 in 944.00 W/m2
15:04 78.0 °F 61.0 °F 30.2 in SE 17 mph 17 mph 57% 0.000 in 944.00 W/m2
15:09 77.0 °F 61.0 °F 30.2 in SE 16 mph 17 mph 59% 0.000 in 914.00 W/m2
15:14 76.0 °F 61.0 °F 30.2 in SE 12 mph 17 mph 59% 0.000 in 914.00 W/m2
15:19 76.0 °F 61.0 °F 30.2 in SE 13 mph 17 mph 59% 0.000 in 642.00 W/m2
15:24 76.0 °F 61.0 °F 30.2 in ESE 17 mph 18 mph 60% 0.000 in 918.00 W/m2
15:29 77.0 °F 62.0 °F 30.2 in SE 11 mph 18 mph 60% 0.000 in 918.00 W/m2
15:34 77.0 °F 62.0 °F 30.1 in SE 16 mph 16 mph 60% 0.000 in 684.00 W/m2
15:39 77.0 °F 61.0 °F 30.1 in SE 12 mph 16 mph 60% 0.000 in 898.00 W/m2
15:44 76.0 °F 61.0 °F 30.1 in SE 18 mph 19 mph 60% 0.000 in 905.00 W/m2
15:49 76.0 °F 61.0 °F 30.1 in ESE 15 mph 19 mph 61% 0.000 in 905.00 W/m2
15:54 76.0 °F 62.0 °F 30.1 in SE 14 mph 19 mph 61% 0.000 in 733.00 W/m2
15:59 76.0 °F 61.0 °F 30.1 in SE 15 mph 15 mph 60% 0.000 in 302.00 W/m2
16:04 76.0 °F 61.0 °F 30.1 in SE 18 mph 18 mph 61% 0.000 in 443.00 W/m2
16:09 75.0 °F 62.0 °F 30.1 in ESE 15 mph 15 mph 62% 0.000 in 661.00 W/m2
16:14 76.0 °F 62.0 °F 30.1 in SE 13 mph 18 mph 62% 0.000 in 896.00 W/m2
16:19 76.0 °F 63.0 °F 30.1 in ESE 13 mph 13 mph 63% 0.000 in 819.00 W/m2
16:24 76.0 °F 62.0 °F 30.1 in SE 18 mph 18 mph 62% 0.000 in 805.00 W/m2
16:29 77.0 °F 62.0 °F 30.1 in SE 10 mph 15 mph 62% 0.000 in 796.00 W/m2
16:34 77.0 °F 62.0 °F 30.1 in SE 16 mph 17 mph 62% 0.000 in 751.00 W/m2
16:39 76.0 °F 62.0 °F 30.1 in SE 15 mph 16 mph 62% 0.000 in 751.00 W/m2
16:44 76.0 °F 62.0 °F 30.1 in SE 12 mph 16 mph 62% 0.000 in 629.00 W/m2
16:49 76.0 °F 62.0 °F 30.1 in SE 17 mph 18 mph 62% 0.000 in 547.00 W/m2
16:54 76.0 °F 62.0 °F 30.1 in SE 17 mph 18 mph 62% 0.000 in 624.00 W/m2
16:59 76.0 °F 62.0 °F 30.1 in SE 12 mph 14 mph 62% 0.000 in 594.00 W/m2
17:04 76.0 °F 62.0 °F 30.1 in SE 14 mph 19 mph 62% 0.000 in 513.00 W/m2
17:09 75.0 °F 62.0 °F 30.1 in SE 15 mph 16 mph 62% 0.000 in 401.00 W/m2
17:14 75.0 °F 61.0 °F 30.1 in SE 12 mph 15 mph 62% 0.000 in 260.00 W/m2
17:19 75.0 °F 61.0 °F 30.1 in SE 16 mph 16 mph 62% 0.000 in 297.00 W/m2
17:24 75.0 °F 61.0 °F 30.1 in SE 23 mph 23 mph 63% 0.000 in 341.00 W/m2
17:29 74.0 °F 61.0 °F 30.1 in SE 11 mph 18 mph 64% 0.000 in 387.00 W/m2
17:34 74.0 °F 61.0 °F 30.1 in SE 14 mph 14 mph 64% 0.000 in 334.00 W/m2
17:39 74.0 °F 61.0 °F 30.1 in SE 12 mph 14 mph 64% 0.000 in 359.00 W/m2
17:44 74.0 °F 61.0 °F 30.1 in SE 11 mph 12 mph 64% 0.000 in 237.00 W/m2
17:49 74.0 °F 61.0 °F 30.1 in SE 11 mph 15 mph 65% 0.000 in 232.00 W/m2
17:54 74.0 °F 61.0 °F 30.1 in SE 14 mph 15 mph 65% 0.000 in 236.00 W/m2
17:59 74.0 °F 61.0 °F 30.1 in SE 16 mph 16 mph 66% 0.000 in 116.00 W/m2
18:04 73.0 °F 61.0 °F 30.1 in SE 14 mph 14 mph 66% 0.000 in 90.00 W/m2
18:09 73.0 °F 61.0 °F 30.1 in SE 15 mph 15 mph 66% 0.000 in 84.00 W/m2
18:14 73.0 °F 61.0 °F 30.1 in SE 12 mph 12 mph 67% 0.000 in 84.00 W/m2
18:19 73.0 °F 61.0 °F 30.1 in SE 15 mph 15 mph 67% 0.000 in 53.00 W/m2
18:24 72.0 °F 61.0 °F 30.1 in SE 16 mph 16 mph 68% 0.000 in 69.00 W/m2
18:29 72.0 °F 61.0 °F 30.1 in SE 14 mph 18 mph 68% 0.000 in 72.00 W/m2
18:34 72.0 °F 61.0 °F 30.1 in SE 13 mph 18 mph 68% 0.000 in 63.00 W/m2
18:39 72.0 °F 61.0 °F 30.1 in SE 12 mph 12 mph 68% 0.000 in 42.00 W/m2
18:44 72.0 °F 61.0 °F 30.1 in SE 14 mph 14 mph 68% 0.000 in 35.00 W/m2
18:49 71.0 °F 61.0 °F 30.1 in SE 13 mph 14 mph 69% 0.000 in 16.00 W/m2
18:54 71.0 °F 61.0 °F 30.1 in SE 11 mph 11 mph 69% 0.000 in 12.00 W/m2
18:59 71.0 °F 61.0 °F 30.1 in SE 13 mph 13 mph 69% 0.000 in 12.00 W/m2
19:04 71.0 °F 61.0 °F 30.1 in SE 15 mph 15 mph 69% 0.000 in 12.00 W/m2
19:09 71.0 °F 60.0 °F 30.1 in SE 14 mph 15 mph 69% 0.000 in 16.00 W/m2
19:14 71.0 °F 60.0 °F 30.1 in SE 13 mph 14 mph 69% 0.000 in 18.00 W/m2
19:19 71.0 °F 61.0 °F 30.1 in SE 7 mph 9 mph 70% 0.000 in 18.00 W/m2
19:24 71.0 °F 61.0 °F 30.1 in SE 12 mph 13 mph 70% 0.000 in 14.00 W/m2
19:29 71.0 °F 60.0 °F 30.1 in SE 12 mph 12 mph 70% 0.000 in 12.00 W/m2
19:34 71.0 °F 60.0 °F 30.1 in SE 12 mph 12 mph 70% 0.000 in 9.00 W/m2
19:39 71.0 °F 60.0 °F 30.1 in SE 10 mph 11 mph 70% 0.000 in 7.00 W/m2
19:44 70.0 °F 60.0 °F 30.1 in SE 12 mph 16 mph 71% 0.000 in 7.00 W/m2
19:49 70.0 °F 60.0 °F 30.1 in SE 9 mph 9 mph 71% 0.000 in 0.00 W/m2
19:54 70.0 °F 60.0 °F 30.1 in SE 9 mph 14 mph 71% 0.000 in 0.00 W/m2
19:59 70.0 °F 60.0 °F 30.1 in SE 12 mph 12 mph 71% 0.000 in 0.00 W/m2
20:04 70.0 °F 60.0 °F 30.1 in SE 12 mph 16 mph 71% 0.000 in 0.00 W/m2
20:09 70.0 °F 60.0 °F 30.1 in SE 11 mph 15 mph 71% 0.000 in 0.00 W/m2
20:14 70.0 °F 60.0 °F 30.1 in SE 10 mph 13 mph 72% 0.000 in 0.00 W/m2
20:19 70.0 °F 60.0 °F 30.1 in SE 10 mph 10 mph 72% 0.000 in 0.00 W/m2
20:24 69.0 °F 60.0 °F 30.1 in SE 9 mph 13 mph 72% 0.000 in 0.00 W/m2
20:29 69.0 °F 60.0 °F 30.1 in SE 8 mph 10 mph 72% 0.000 in 0.00 W/m2
20:34 69.0 °F 60.0 °F 30.1 in SE 6 mph 10 mph 72% 0.000 in 0.00 W/m2
20:39 69.0 °F 60.0 °F 30.1 in SE 8 mph 11 mph 72% 0.000 in 0.00 W/m2
20:44 69.0 °F 60.0 °F 30.1 in SE 8 mph 8 mph 72% 0.000 in 0.00 W/m2
20:49 69.0 °F 60.0 °F 30.1 in SE 9 mph 10 mph 73% 0.000 in 0.00 W/m2
20:54 69.0 °F 60.0 °F 30.1 in SE 7 mph 9 mph 73% 0.000 in 0.00 W/m2
20:59 69.0 °F 60.0 °F 30.1 in SE 7 mph 8 mph 73% 0.000 in 0.00 W/m2
21:04 69.0 °F 60.0 °F 30.1 in SE 10 mph 10 mph 73% 0.000 in 0.00 W/m2
21:09 69.0 °F 60.0 °F 30.1 in SE 11 mph 11 mph 73% 0.000 in 0.00 W/m2
21:14 69.0 °F 61.0 °F 30.1 in SE 7 mph 7 mph 74% 0.000 in 0.00 W/m2
21:19 69.0 °F 61.0 °F 30.1 in SE 11 mph 11 mph 74% 0.000 in 0.00 W/m2
21:24 69.0 °F 61.0 °F 30.1 in SE 9 mph 11 mph 74% 0.000 in 0.00 W/m2
21:28 69.0 °F 61.0 °F 30.1 in SE 10 mph 12 mph 74% 0.000 in 0.00 W/m2
21:34 69.0 °F 61.0 °F 30.1 in SE 7 mph 9 mph 74% 0.000 in 0.00 W/m2
21:39 69.0 °F 61.0 °F 30.1 in SE 7 mph 8 mph 74% 0.000 in 0.00 W/m2
21:44 69.0 °F 61.0 °F 30.1 in SE 12 mph 12 mph 74% 0.000 in 0.00 W/m2
21:49 69.0 °F 61.0 °F 30.1 in SE 7 mph 10 mph 74% 0.000 in 0.00 W/m2
21:54 69.0 °F 61.0 °F 30.1 in SE 9 mph 10 mph 75% 0.000 in 0.00 W/m2
21:59 69.0 °F 61.0 °F 30.1 in SE 10 mph 11 mph 75% 0.000 in 0.00 W/m2
22:04 69.0 °F 61.0 °F 30.1 in SE 11 mph 11 mph 75% 0.000 in 0.00 W/m2
22:09 69.0 °F 61.0 °F 30.1 in SE 12 mph 13 mph 75% 0.000 in 0.00 W/m2
22:14 69.0 °F 61.0 °F 30.1 in SE 9 mph 10 mph 76% 0.000 in 0.00 W/m2
22:19 69.0 °F 61.0 °F 30.1 in SE 11 mph 13 mph 76% 0.000 in 0.00 W/m2
22:24 69.0 °F 61.0 °F 30.1 in SE 10 mph 10 mph 76% 0.000 in 0.00 W/m2
22:29 69.0 °F 61.0 °F 30.1 in SE 12 mph 12 mph 76% 0.000 in 0.00 W/m2
22:34 69.0 °F 61.0 °F 30.1 in SE 11 mph 12 mph 76% 0.000 in 0.00 W/m2
22:39 69.0 °F 61.0 °F 30.1 in SE 12 mph 12 mph 76% 0.000 in 0.00 W/m2
22:44 69.0 °F 62.0 °F 30.1 in SE 9 mph 10 mph 77% 0.000 in 0.00 W/m2
22:49 69.0 °F 62.0 °F 30.1 in SE 7 mph 11 mph 77% 0.000 in 0.00 W/m2
22:54 69.0 °F 62.0 °F 30.1 in SE 14 mph 14 mph 77% 0.000 in 0.00 W/m2
22:59 69.0 °F 62.0 °F 30.1 in SE 15 mph 15 mph 77% 0.000 in 0.00 W/m2
23:04 69.0 °F 62.0 °F 30.1 in SE 13 mph 13 mph 77% 0.000 in 0.00 W/m2
23:09 69.0 °F 62.0 °F 30.1 in SE 9 mph 11 mph 77% 0.000 in 0.00 W/m2
23:14 69.0 °F 62.0 °F 30.1 in SE 11 mph 11 mph 77% 0.000 in 0.00 W/m2
23:19 69.0 °F 62.0 °F 30.1 in SE 12 mph 12 mph 77% 0.000 in 0.00 W/m2
23:24 69.0 °F 62.0 °F 30.1 in SE 10 mph 12 mph 77% 0.000 in 0.00 W/m2
23:29 69.0 °F 62.0 °F 30.1 in SE 8 mph 10 mph 78% 0.000 in 0.00 W/m2
23:34 69.0 °F 62.0 °F 30.1 in SE 10 mph 10 mph 78% 0.000 in 0.00 W/m2
23:39 69.0 °F 62.0 °F 30.1 in SE 11 mph 11 mph 78% 0.000 in 0.00 W/m2
23:44 69.0 °F 62.0 °F 30.1 in SE 9 mph 11 mph 78% 0.000 in 0.00 W/m2
23:49 69.0 °F 62.0 °F 30.1 in SE 13 mph 14 mph 78% 0.000 in 0.00 W/m2
23:54 69.0 °F 62.0 °F 30.1 in SE 12 mph 14 mph 78% 0.000 in 0.00 W/m2
23:59 69.0 °F 62.0 °F 30.1 in SE 13 mph 13 mph 78% 0.000 in 0.00 W/m2
Villages of Bridgestone, Spring, TX USA
Compliments of Weather Underground - 4 mb